sensor_id;sensor_type;location;lat;lon;timestamp;temperature;humidity
4390;DHT22;2209;48.982;8.406;2023-11-21T00:00:16;11.40;99.90
4390;DHT22;2209;48.982;8.406;2023-11-21T00:02:39;11.40;99.90
4390;DHT22;2209;48.982;8.406;2023-11-21T00:05:01;11.40;99.90
4390;DHT22;2209;48.982;8.406;2023-11-21T00:07:24;11.40;99.90
4390;DHT22;2209;48.982;8.406;2023-11-21T00:09:46;11.40;99.90
4390;DHT22;2209;48.982;8.406;2023-11-21T00:12:09;11.40;99.90
4390;DHT22;2209;48.982;8.406;2023-11-21T00:14:31;11.40;99.90
4390;DHT22;2209;48.982;8.406;2023-11-21T00:16:54;11.40;99.90
4390;DHT22;2209;48.982;8.406;2023-11-21T00:19:16;11.40;99.90
4390;DHT22;2209;48.982;8.406;2023-11-21T00:21:38;11.40;99.90
4390;DHT22;2209;48.982;8.406;2023-11-21T00:24:00;11.40;99.90
4390;DHT22;2209;48.982;8.406;2023-11-21T00:26:22;11.40;99.90
4390;DHT22;2209;48.982;8.406;2023-11-21T00:28:46;11.40;99.90
4390;DHT22;2209;48.982;8.406;2023-11-21T00:31:08;11.40;99.90
4390;DHT22;2209;48.982;8.406;2023-11-21T00:33:30;11.40;99.90
4390;DHT22;2209;48.982;8.406;2023-11-21T00:35:52;11.40;99.90
4390;DHT22;2209;48.982;8.406;2023-11-21T00:38:14;11.40;99.90
4390;DHT22;2209;48.982;8.406;2023-11-21T00:40:36;11.40;99.90
4390;DHT22;2209;48.982;8.406;2023-11-21T00:42:58;11.40;99.90
4390;DHT22;2209;48.982;8.406;2023-11-21T00:45:22;11.30;99.90
4390;DHT22;2209;48.982;8.406;2023-11-21T00:47:44;11.40;99.90
4390;DHT22;2209;48.982;8.406;2023-11-21T00:50:06;11.40;99.90
4390;DHT22;2209;48.982;8.406;2023-11-21T00:52:29;11.30;99.90
4390;DHT22;2209;48.982;8.406;2023-11-21T00:54:51;11.30;99.90
4390;DHT22;2209;48.982;8.406;2023-11-21T00:57:13;11.40;99.90
4390;DHT22;2209;48.982;8.406;2023-11-21T00:59:35;11.40;99.90
4390;DHT22;2209;48.982;8.406;2023-11-21T01:01:58;11.40;99.90
4390;DHT22;2209;48.982;8.406;2023-11-21T01:04:22;11.40;99.90
4390;DHT22;2209;48.982;8.406;2023-11-21T01:06:44;11.40;99.90
4390;DHT22;2209;48.982;8.406;2023-11-21T01:09:06;11.40;99.90
4390;DHT22;2209;48.982;8.406;2023-11-21T01:11:29;11.40;99.90
4390;DHT22;2209;48.982;8.406;2023-11-21T01:13:51;11.40;99.90
4390;DHT22;2209;48.982;8.406;2023-11-21T01:16:14;11.40;99.90
4390;DHT22;2209;48.982;8.406;2023-11-21T01:18:38;11.40;99.90
4390;DHT22;2209;48.982;8.406;2023-11-21T01:21:00;11.40;99.90
4390;DHT22;2209;48.982;8.406;2023-11-21T01:23:22;11.40;99.90
4390;DHT22;2209;48.982;8.406;2023-11-21T01:25:44;11.40;99.90
4390;DHT22;2209;48.982;8.406;2023-11-21T01:28:06;11.40;99.90
4390;DHT22;2209;48.982;8.406;2023-11-21T01:30:28;11.40;99.90
4390;DHT22;2209;48.982;8.406;2023-11-21T01:32:50;11.40;99.90
4390;DHT22;2209;48.982;8.406;2023-11-21T01:35:12;11.40;99.90
4390;DHT22;2209;48.982;8.406;2023-11-21T01:37:34;11.40;99.90
4390;DHT22;2209;48.982;8.406;2023-11-21T01:39:56;11.40;99.90
4390;DHT22;2209;48.982;8.406;2023-11-21T01:42:19;11.40;99.90
4390;DHT22;2209;48.982;8.406;2023-11-21T01:44:41;11.40;99.90
4390;DHT22;2209;48.982;8.406;2023-11-21T01:47:04;11.40;99.90
4390;DHT22;2209;48.982;8.406;2023-11-21T01:49:26;11.40;99.90
4390;DHT22;2209;48.982;8.406;2023-11-21T01:51:51;11.40;99.90
4390;DHT22;2209;48.982;8.406;2023-11-21T01:54:13;11.30;99.90
4390;DHT22;2209;48.982;8.406;2023-11-21T01:56:35;11.30;99.90
4390;DHT22;2209;48.982;8.406;2023-11-21T01:58:58;11.30;99.90
4390;DHT22;2209;48.982;8.406;2023-11-21T02:01:20;11.30;99.90
4390;DHT22;2209;48.982;8.406;2023-11-21T02:03:42;11.30;99.90
4390;DHT22;2209;48.982;8.406;2023-11-21T02:06:05;11.20;99.90
4390;DHT22;2209;48.982;8.406;2023-11-21T02:08:29;11.30;99.90
4390;DHT22;2209;48.982;8.406;2023-11-21T02:10:51;11.30;99.90
4390;DHT22;2209;48.982;8.406;2023-11-21T02:13:19;11.30;99.90
4390;DHT22;2209;48.982;8.406;2023-11-21T02:15:41;11.30;99.90
4390;DHT22;2209;48.982;8.406;2023-11-21T02:18:04;11.20;99.90
4390;DHT22;2209;48.982;8.406;2023-11-21T02:20:27;11.20;99.90
4390;DHT22;2209;48.982;8.406;2023-11-21T02:22:52;11.20;99.90
4390;DHT22;2209;48.982;8.406;2023-11-21T02:25:18;11.20;99.90
4390;DHT22;2209;48.982;8.406;2023-11-21T02:27:40;11.20;99.90
4390;DHT22;2209;48.982;8.406;2023-11-21T02:30:04;11.20;99.90
4390;DHT22;2209;48.982;8.406;2023-11-21T02:32:28;11.10;99.90
4390;DHT22;2209;48.982;8.406;2023-11-21T02:34:52;11.10;99.90
4390;DHT22;2209;48.982;8.406;2023-11-21T02:37:16;11.10;99.90
4390;DHT22;2209;48.982;8.406;2023-11-21T02:39:40;11.10;99.90
4390;DHT22;2209;48.982;8.406;2023-11-21T02:42:02;11.00;99.90
4390;DHT22;2209;48.982;8.406;2023-11-21T02:44:24;11.00;99.90
4390;DHT22;2209;48.982;8.406;2023-11-21T02:46:47;11.00;99.90
4390;DHT22;2209;48.982;8.406;2023-11-21T02:49:09;11.00;99.90
4390;DHT22;2209;48.982;8.406;2023-11-21T02:51:31;11.00;99.90
4390;DHT22;2209;48.982;8.406;2023-11-21T02:53:53;11.00;99.90
4390;DHT22;2209;48.982;8.406;2023-11-21T02:56:16;10.90;99.90
4390;DHT22;2209;48.982;8.406;2023-11-21T02:58:41;10.90;99.90
4390;DHT22;2209;48.982;8.406;2023-11-21T03:01:04;10.90;99.90
4390;DHT22;2209;48.982;8.406;2023-11-21T03:03:26;10.90;99.90
4390;DHT22;2209;48.982;8.406;2023-11-21T03:05:49;10.90;99.90
4390;DHT22;2209;48.982;8.406;2023-11-21T03:08:11;10.90;99.90
4390;DHT22;2209;48.982;8.406;2023-11-21T03:10:33;10.90;99.90
4390;DHT22;2209;48.982;8.406;2023-11-21T03:12:56;10.90;99.90
4390;DHT22;2209;48.982;8.406;2023-11-21T03:15:19;10.90;99.90
4390;DHT22;2209;48.982;8.406;2023-11-21T03:17:41;10.90;99.90
4390;DHT22;2209;48.982;8.406;2023-11-21T03:20:03;10.90;99.90
4390;DHT22;2209;48.982;8.406;2023-11-21T03:22:25;10.90;99.90
4390;DHT22;2209;48.982;8.406;2023-11-21T03:24:48;10.90;99.90
4390;DHT22;2209;48.982;8.406;2023-11-21T03:27:10;10.90;99.90
4390;DHT22;2209;48.982;8.406;2023-11-21T03:29:34;10.90;99.90
4390;DHT22;2209;48.982;8.406;2023-11-21T03:31:56;10.90;99.90
4390;DHT22;2209;48.982;8.406;2023-11-21T03:34:24;10.90;99.90
4390;DHT22;2209;48.982;8.406;2023-11-21T03:36:46;10.90;99.90
4390;DHT22;2209;48.982;8.406;2023-11-21T03:39:08;10.90;99.90
4390;DHT22;2209;48.982;8.406;2023-11-21T03:41:30;10.90;99.90
4390;DHT22;2209;48.982;8.406;2023-11-21T03:47:11;10.90;99.90
4390;DHT22;2209;48.982;8.406;2023-11-21T03:49:34;10.90;99.90
4390;DHT22;2209;48.982;8.406;2023-11-21T03:51:57;10.90;99.90
4390;DHT22;2209;48.982;8.406;2023-11-21T03:54:19;10.90;99.90
4390;DHT22;2209;48.982;8.406;2023-11-21T03:56:41;10.90;99.90
4390;DHT22;2209;48.982;8.406;2023-11-21T03:59:04;10.90;99.90
4390;DHT22;2209;48.982;8.406;2023-11-21T04:01:26;10.90;99.90
4390;DHT22;2209;48.982;8.406;2023-11-21T04:03:50;10.90;99.90
4390;DHT22;2209;48.982;8.406;2023-11-21T04:06:13;10.80;99.90
4390;DHT22;2209;48.982;8.406;2023-11-21T04:08:35;10.80;99.90
4390;DHT22;2209;48.982;8.406;2023-11-21T04:10:58;10.80;99.90
4390;DHT22;2209;48.982;8.406;2023-11-21T04:13:20;10.80;99.90
4390;DHT22;2209;48.982;8.406;2023-11-21T04:15:42;10.80;99.90
4390;DHT22;2209;48.982;8.406;2023-11-21T04:18:05;10.80;99.90
4390;DHT22;2209;48.982;8.406;2023-11-21T04:20:28;10.80;99.90
4390;DHT22;2209;48.982;8.406;2023-11-21T04:22:51;10.80;99.90
4390;DHT22;2209;48.982;8.406;2023-11-21T04:25:14;10.80;99.90
4390;DHT22;2209;48.982;8.406;2023-11-21T04:27:38;10.80;99.90
4390;DHT22;2209;48.982;8.406;2023-11-21T04:30:00;10.80;99.90
4390;DHT22;2209;48.982;8.406;2023-11-21T04:32:22;10.80;99.90
4390;DHT22;2209;48.982;8.406;2023-11-21T04:34:44;10.80;99.90
4390;DHT22;2209;48.982;8.406;2023-11-21T04:37:07;10.80;99.90
4390;DHT22;2209;48.982;8.406;2023-11-21T04:39:31;10.80;99.90
4390;DHT22;2209;48.982;8.406;2023-11-21T04:41:53;10.80;99.90
4390;DHT22;2209;48.982;8.406;2023-11-21T04:44:15;10.80;99.90
4390;DHT22;2209;48.982;8.406;2023-11-21T04:46:38;10.80;99.90
4390;DHT22;2209;48.982;8.406;2023-11-21T04:49:00;10.80;99.90
4390;DHT22;2209;48.982;8.406;2023-11-21T04:51:22;10.80;99.90
4390;DHT22;2209;48.982;8.406;2023-11-21T04:53:45;10.80;99.90
4390;DHT22;2209;48.982;8.406;2023-11-21T04:56:07;10.80;99.90
4390;DHT22;2209;48.982;8.406;2023-11-21T04:58:30;10.80;99.90
4390;DHT22;2209;48.982;8.406;2023-11-21T05:00:52;10.80;99.90
4390;DHT22;2209;48.982;8.406;2023-11-21T05:03:14;10.80;99.90
4390;DHT22;2209;48.982;8.406;2023-11-21T05:05:36;10.80;99.90
4390;DHT22;2209;48.982;8.406;2023-11-21T05:07:58;10.70;99.90
4390;DHT22;2209;48.982;8.406;2023-11-21T05:10:20;10.80;99.90
4390;DHT22;2209;48.982;8.406;2023-11-21T05:12:43;10.80;99.90
4390;DHT22;2209;48.982;8.406;2023-11-21T05:15:06;10.70;99.90
4390;DHT22;2209;48.982;8.406;2023-11-21T05:17:30;10.80;99.90
4390;DHT22;2209;48.982;8.406;2023-11-21T05:19:53;10.80;99.90
4390;DHT22;2209;48.982;8.406;2023-11-21T05:22:15;10.80;99.90
4390;DHT22;2209;48.982;8.406;2023-11-21T05:24:37;10.80;99.90
4390;DHT22;2209;48.982;8.406;2023-11-21T05:27:01;10.80;99.90
4390;DHT22;2209;48.982;8.406;2023-11-21T05:29:23;10.70;99.90
4390;DHT22;2209;48.982;8.406;2023-11-21T05:31:46;10.70;99.90
4390;DHT22;2209;48.982;8.406;2023-11-21T05:34:08;10.70;99.90
4390;DHT22;2209;48.982;8.406;2023-11-21T05:36:30;10.70;99.90
4390;DHT22;2209;48.982;8.406;2023-11-21T05:38:52;10.70;99.90
4390;DHT22;2209;48.982;8.406;2023-11-21T05:41:15;10.70;99.90
4390;DHT22;2209;48.982;8.406;2023-11-21T05:43:39;10.70;99.90
4390;DHT22;2209;48.982;8.406;2023-11-21T05:46:01;10.80;99.90
4390;DHT22;2209;48.982;8.406;2023-11-21T05:48:23;10.80;99.90
4390;DHT22;2209;48.982;8.406;2023-11-21T05:50:46;10.80;99.90
4390;DHT22;2209;48.982;8.406;2023-11-21T05:53:09;10.70;99.90
4390;DHT22;2209;48.982;8.406;2023-11-21T05:55:32;10.70;99.90
4390;DHT22;2209;48.982;8.406;2023-11-21T05:57:54;10.70;99.90
4390;DHT22;2209;48.982;8.406;2023-11-21T06:00:17;10.70;99.90
4390;DHT22;2209;48.982;8.406;2023-11-21T06:02:41;10.70;99.90
4390;DHT22;2209;48.982;8.406;2023-11-21T06:05:04;10.70;99.90
4390;DHT22;2209;48.982;8.406;2023-11-21T06:07:26;10.70;99.90
4390;DHT22;2209;48.982;8.406;2023-11-21T06:09:48;10.70;99.90
4390;DHT22;2209;48.982;8.406;2023-11-21T06:12:11;10.70;99.90
4390;DHT22;2209;48.982;8.406;2023-11-21T06:14:33;10.60;99.90
4390;DHT22;2209;48.982;8.406;2023-11-21T06:16:57;10.70;99.90
4390;DHT22;2209;48.982;8.406;2023-11-21T06:19:19;10.70;99.90
4390;DHT22;2209;48.982;8.406;2023-11-21T06:21:41;10.70;99.90
4390;DHT22;2209;48.982;8.406;2023-11-21T06:24:07;10.70;99.90
4390;DHT22;2209;48.982;8.406;2023-11-21T06:26:29;10.70;99.90
4390;DHT22;2209;48.982;8.406;2023-11-21T06:28:52;10.70;99.90
4390;DHT22;2209;48.982;8.406;2023-11-21T06:31:14;10.60;99.90
4390;DHT22;2209;48.982;8.406;2023-11-21T06:33:37;10.60;99.90
4390;DHT22;2209;48.982;8.406;2023-11-21T06:36:00;10.60;99.90
4390;DHT22;2209;48.982;8.406;2023-11-21T06:38:23;10.60;99.90
4390;DHT22;2209;48.982;8.406;2023-11-21T06:40:45;10.60;99.90
4390;DHT22;2209;48.982;8.406;2023-11-21T06:43:07;10.60;99.90
4390;DHT22;2209;48.982;8.406;2023-11-21T06:45:30;10.60;99.90
4390;DHT22;2209;48.982;8.406;2023-11-21T06:47:52;10.60;99.90
4390;DHT22;2209;48.982;8.406;2023-11-21T06:50:15;10.50;99.90
4390;DHT22;2209;48.982;8.406;2023-11-21T06:52:37;10.60;99.90
4390;DHT22;2209;48.982;8.406;2023-11-21T06:55:00;10.60;99.90
4390;DHT22;2209;48.982;8.406;2023-11-21T06:57:23;10.60;99.90
4390;DHT22;2209;48.982;8.406;2023-11-21T06:59:45;10.60;99.90
4390;DHT22;2209;48.982;8.406;2023-11-21T07:02:07;10.60;99.90
4390;DHT22;2209;48.982;8.406;2023-11-21T07:04:30;10.60;99.90
4390;DHT22;2209;48.982;8.406;2023-11-21T07:06:54;10.60;99.90
4390;DHT22;2209;48.982;8.406;2023-11-21T07:09:16;10.60;99.90
4390;DHT22;2209;48.982;8.406;2023-11-21T07:11:38;10.60;99.90
4390;DHT22;2209;48.982;8.406;2023-11-21T07:14:00;10.60;99.90
4390;DHT22;2209;48.982;8.406;2023-11-21T07:16:26;10.60;99.90
4390;DHT22;2209;48.982;8.406;2023-11-21T07:18:48;10.70;99.90
4390;DHT22;2209;48.982;8.406;2023-11-21T07:21:11;10.60;99.90
4390;DHT22;2209;48.982;8.406;2023-11-21T07:23:34;10.60;99.90
4390;DHT22;2209;48.982;8.406;2023-11-21T07:25:57;10.60;99.90
4390;DHT22;2209;48.982;8.406;2023-11-21T07:28:19;10.60;99.90
4390;DHT22;2209;48.982;8.406;2023-11-21T07:30:41;10.60;99.90
4390;DHT22;2209;48.982;8.406;2023-11-21T07:33:03;10.60;99.90
4390;DHT22;2209;48.982;8.406;2023-11-21T07:35:26;10.70;99.90
4390;DHT22;2209;48.982;8.406;2023-11-21T07:37:48;10.70;99.90
4390;DHT22;2209;48.982;8.406;2023-11-21T07:40:12;10.60;99.90
4390;DHT22;2209;48.982;8.406;2023-11-21T07:42:34;10.70;99.90
4390;DHT22;2209;48.982;8.406;2023-11-21T07:44:56;10.70;99.90
4390;DHT22;2209;48.982;8.406;2023-11-21T07:47:18;10.70;99.90
4390;DHT22;2209;48.982;8.406;2023-11-21T07:49:40;10.70;99.90
4390;DHT22;2209;48.982;8.406;2023-11-21T07:52:04;10.70;99.90
4390;DHT22;2209;48.982;8.406;2023-11-21T07:54:26;10.70;99.90
4390;DHT22;2209;48.982;8.406;2023-11-21T07:56:50;10.70;99.90
4390;DHT22;2209;48.982;8.406;2023-11-21T07:59:12;10.70;99.90
4390;DHT22;2209;48.982;8.406;2023-11-21T08:01:35;10.70;99.90
4390;DHT22;2209;48.982;8.406;2023-11-21T08:03:57;10.70;99.90
4390;DHT22;2209;48.982;8.406;2023-11-21T08:06:23;10.70;99.90
4390;DHT22;2209;48.982;8.406;2023-11-21T08:08:46;10.70;99.90
4390;DHT22;2209;48.982;8.406;2023-11-21T08:11:08;10.70;99.90
4390;DHT22;2209;48.982;8.406;2023-11-21T08:13:33;10.80;99.90
4390;DHT22;2209;48.982;8.406;2023-11-21T08:15:55;10.80;99.90
4390;DHT22;2209;48.982;8.406;2023-11-21T08:18:19;10.70;99.90
4390;DHT22;2209;48.982;8.406;2023-11-21T08:20:41;10.70;99.90
4390;DHT22;2209;48.982;8.406;2023-11-21T08:23:03;10.70;99.90
4390;DHT22;2209;48.982;8.406;2023-11-21T08:25:26;10.70;99.90
4390;DHT22;2209;48.982;8.406;2023-11-21T08:27:48;10.70;99.90
4390;DHT22;2209;48.982;8.406;2023-11-21T08:30:12;10.70;99.90
4390;DHT22;2209;48.982;8.406;2023-11-21T08:32:35;10.70;99.90
4390;DHT22;2209;48.982;8.406;2023-11-21T08:34:57;10.70;99.90
4390;DHT22;2209;48.982;8.406;2023-11-21T08:37:19;10.70;99.90
4390;DHT22;2209;48.982;8.406;2023-11-21T08:39:41;10.70;99.90
4390;DHT22;2209;48.982;8.406;2023-11-21T08:42:03;10.70;99.90
4390;DHT22;2209;48.982;8.406;2023-11-21T08:44:26;10.70;99.90
4390;DHT22;2209;48.982;8.406;2023-11-21T08:46:49;10.70;99.90
4390;DHT22;2209;48.982;8.406;2023-11-21T08:49:11;10.70;99.90
4390;DHT22;2209;48.982;8.406;2023-11-21T08:51:35;10.70;99.90
4390;DHT22;2209;48.982;8.406;2023-11-21T08:53:57;10.70;99.90
4390;DHT22;2209;48.982;8.406;2023-11-21T08:56:21;10.60;99.90
4390;DHT22;2209;48.982;8.406;2023-11-21T08:58:43;10.60;99.90
4390;DHT22;2209;48.982;8.406;2023-11-21T09:01:05;10.50;99.90
4390;DHT22;2209;48.982;8.406;2023-11-21T09:03:29;10.50;99.90
4390;DHT22;2209;48.982;8.406;2023-11-21T09:05:52;10.40;99.90
4390;DHT22;2209;48.982;8.406;2023-11-21T09:08:14;10.40;99.90
4390;DHT22;2209;48.982;8.406;2023-11-21T09:10:37;10.40;99.90
4390;DHT22;2209;48.982;8.406;2023-11-21T09:13:00;10.30;99.90
4390;DHT22;2209;48.982;8.406;2023-11-21T09:15:22;10.30;99.90
4390;DHT22;2209;48.982;8.406;2023-11-21T09:17:44;10.30;99.90
4390;DHT22;2209;48.982;8.406;2023-11-21T09:20:09;10.30;99.90
4390;DHT22;2209;48.982;8.406;2023-11-21T09:22:31;10.30;99.90
4390;DHT22;2209;48.982;8.406;2023-11-21T09:24:53;10.30;99.90
4390;DHT22;2209;48.982;8.406;2023-11-21T09:27:17;10.30;99.90
4390;DHT22;2209;48.982;8.406;2023-11-21T09:29:39;10.30;99.90
4390;DHT22;2209;48.982;8.406;2023-11-21T09:32:01;10.30;99.90
4390;DHT22;2209;48.982;8.406;2023-11-21T09:34:23;10.30;99.90
4390;DHT22;2209;48.982;8.406;2023-11-21T09:36:48;10.30;99.90
4390;DHT22;2209;48.982;8.406;2023-11-21T09:39:10;10.30;99.90
4390;DHT22;2209;48.982;8.406;2023-11-21T09:41:42;10.30;99.90
4390;DHT22;2209;48.982;8.406;2023-11-21T09:44:09;10.40;99.90
4390;DHT22;2209;48.982;8.406;2023-11-21T09:46:33;10.40;99.90
4390;DHT22;2209;48.982;8.406;2023-11-21T09:48:57;10.40;99.90
4390;DHT22;2209;48.982;8.406;2023-11-21T09:51:26;10.50;99.90
4390;DHT22;2209;48.982;8.406;2023-11-21T09:53:52;10.50;99.90
4390;DHT22;2209;48.982;8.406;2023-11-21T09:56:14;10.50;99.90
4390;DHT22;2209;48.982;8.406;2023-11-21T09:58:40;10.40;99.90
4390;DHT22;2209;48.982;8.406;2023-11-21T10:01:02;10.30;99.90
4390;DHT22;2209;48.982;8.406;2023-11-21T10:03:27;10.30;99.90
4390;DHT22;2209;48.982;8.406;2023-11-21T10:05:51;10.30;99.90
4390;DHT22;2209;48.982;8.406;2023-11-21T10:08:15;10.30;99.90
4390;DHT22;2209;48.982;8.406;2023-11-21T10:10:43;10.30;99.90
4390;DHT22;2209;48.982;8.406;2023-11-21T10:13:06;10.30;99.90
4390;DHT22;2209;48.982;8.406;2023-11-21T10:15:31;10.30;99.90
4390;DHT22;2209;48.982;8.406;2023-11-21T10:17:55;10.30;99.90
4390;DHT22;2209;48.982;8.406;2023-11-21T10:20:18;10.30;99.90
4390;DHT22;2209;48.982;8.406;2023-11-21T10:22:41;10.40;99.90
4390;DHT22;2209;48.982;8.406;2023-11-21T10:25:04;10.40;99.90
4390;DHT22;2209;48.982;8.406;2023-11-21T10:27:30;10.40;99.90
4390;DHT22;2209;48.982;8.406;2023-11-21T10:29:52;10.50;99.90
4390;DHT22;2209;48.982;8.406;2023-11-21T10:32:14;10.40;99.90
4390;DHT22;2209;48.982;8.406;2023-11-21T10:34:36;10.40;99.90
4390;DHT22;2209;48.982;8.406;2023-11-21T10:36:58;10.50;99.90
4390;DHT22;2209;48.982;8.406;2023-11-21T10:39:20;10.50;99.90
4390;DHT22;2209;48.982;8.406;2023-11-21T10:41:44;10.60;99.90
4390;DHT22;2209;48.982;8.406;2023-11-21T10:44:08;10.50;99.90
4390;DHT22;2209;48.982;8.406;2023-11-21T10:46:32;10.50;99.90
4390;DHT22;2209;48.982;8.406;2023-11-21T10:48:55;10.50;99.90
4390;DHT22;2209;48.982;8.406;2023-11-21T10:51:17;10.50;99.90
4390;DHT22;2209;48.982;8.406;2023-11-21T10:53:40;10.40;99.90
4390;DHT22;2209;48.982;8.406;2023-11-21T10:56:05;10.40;99.90
4390;DHT22;2209;48.982;8.406;2023-11-21T10:58:28;10.30;99.90
4390;DHT22;2209;48.982;8.406;2023-11-21T11:00:51;10.30;99.90
4390;DHT22;2209;48.982;8.406;2023-11-21T11:03:14;10.30;99.90
4390;DHT22;2209;48.982;8.406;2023-11-21T11:05:37;10.30;99.90
4390;DHT22;2209;48.982;8.406;2023-11-21T11:08:04;10.30;99.90
4390;DHT22;2209;48.982;8.406;2023-11-21T11:10:27;10.30;99.90
4390;DHT22;2209;48.982;8.406;2023-11-21T11:12:50;10.20;99.90
4390;DHT22;2209;48.982;8.406;2023-11-21T11:15:13;10.20;99.90
4390;DHT22;2209;48.982;8.406;2023-11-21T11:17:38;10.20;99.90
4390;DHT22;2209;48.982;8.406;2023-11-21T11:20:01;10.30;99.90
4390;DHT22;2209;48.982;8.406;2023-11-21T11:22:36;10.30;99.90
4390;DHT22;2209;48.982;8.406;2023-11-21T11:27:56;10.20;99.90
4390;DHT22;2209;48.982;8.406;2023-11-21T11:30:32;10.30;99.90
4390;DHT22;2209;48.982;8.406;2023-11-21T11:33:08;10.20;99.90
4390;DHT22;2209;48.982;8.406;2023-11-21T11:35:41;10.30;99.90
4390;DHT22;2209;48.982;8.406;2023-11-21T11:38:04;10.30;99.90
4390;DHT22;2209;48.982;8.406;2023-11-21T11:40:38;10.30;99.90
4390;DHT22;2209;48.982;8.406;2023-11-21T11:43:01;10.30;99.90
4390;DHT22;2209;48.982;8.406;2023-11-21T11:45:30;10.30;99.90
4390;DHT22;2209;48.982;8.406;2023-11-21T11:47:57;10.20;99.90
4390;DHT22;2209;48.982;8.406;2023-11-21T11:50:20;10.20;99.90
4390;DHT22;2209;48.982;8.406;2023-11-21T11:52:43;10.30;99.90
4390;DHT22;2209;48.982;8.406;2023-11-21T11:55:06;10.30;99.90
4390;DHT22;2209;48.982;8.406;2023-11-21T11:57:31;10.30;99.90
4390;DHT22;2209;48.982;8.406;2023-11-21T12:00:11;10.40;99.90
4390;DHT22;2209;48.982;8.406;2023-11-21T12:02:36;10.40;99.90
4390;DHT22;2209;48.982;8.406;2023-11-21T12:04:58;10.40;99.90
4390;DHT22;2209;48.982;8.406;2023-11-21T12:07:21;10.50;99.90
4390;DHT22;2209;48.982;8.406;2023-11-21T12:09:44;10.40;99.90
4390;DHT22;2209;48.982;8.406;2023-11-21T12:12:08;10.50;99.90
4390;DHT22;2209;48.982;8.406;2023-11-21T12:14:30;10.50;99.90
4390;DHT22;2209;48.982;8.406;2023-11-21T12:16:53;10.50;99.90
4390;DHT22;2209;48.982;8.406;2023-11-21T12:19:15;10.50;99.90
4390;DHT22;2209;48.982;8.406;2023-11-21T12:21:38;10.50;99.90
4390;DHT22;2209;48.982;8.406;2023-11-21T12:24:03;10.50;99.90
4390;DHT22;2209;48.982;8.406;2023-11-21T12:26:29;10.50;99.90
4390;DHT22;2209;48.982;8.406;2023-11-21T12:28:52;10.50;99.90
4390;DHT22;2209;48.982;8.406;2023-11-21T12:31:16;10.60;99.90
4390;DHT22;2209;48.982;8.406;2023-11-21T12:33:38;10.60;99.90
4390;DHT22;2209;48.982;8.406;2023-11-21T12:36:01;10.60;99.90
4390;DHT22;2209;48.982;8.406;2023-11-21T12:38:24;10.60;99.90
4390;DHT22;2209;48.982;8.406;2023-11-21T12:40:47;10.60;99.90
4390;DHT22;2209;48.982;8.406;2023-11-21T12:43:09;10.60;99.90
4390;DHT22;2209;48.982;8.406;2023-11-21T12:45:31;10.60;99.90
4390;DHT22;2209;48.982;8.406;2023-11-21T12:47:56;10.60;99.90
4390;DHT22;2209;48.982;8.406;2023-11-21T12:50:20;10.60;99.90
4390;DHT22;2209;48.982;8.406;2023-11-21T12:52:45;10.60;99.90
4390;DHT22;2209;48.982;8.406;2023-11-21T12:55:08;10.60;99.90
4390;DHT22;2209;48.982;8.406;2023-11-21T12:57:35;10.60;99.90
4390;DHT22;2209;48.982;8.406;2023-11-21T12:59:59;10.60;99.90
4390;DHT22;2209;48.982;8.406;2023-11-21T13:02:26;10.60;99.90
4390;DHT22;2209;48.982;8.406;2023-11-21T13:04:51;10.60;99.90
4390;DHT22;2209;48.982;8.406;2023-11-21T13:07:14;10.50;99.90
4390;DHT22;2209;48.982;8.406;2023-11-21T13:09:36;10.60;99.90
4390;DHT22;2209;48.982;8.406;2023-11-21T13:12:00;10.60;99.90
4390;DHT22;2209;48.982;8.406;2023-11-21T13:14:30;10.60;99.90
4390;DHT22;2209;48.982;8.406;2023-11-21T13:16:52;10.60;99.90
4390;DHT22;2209;48.982;8.406;2023-11-21T13:19:15;10.60;99.90
4390;DHT22;2209;48.982;8.406;2023-11-21T13:21:37;10.60;99.90
4390;DHT22;2209;48.982;8.406;2023-11-21T13:24:00;10.70;99.90
4390;DHT22;2209;48.982;8.406;2023-11-21T13:26:23;10.70;99.90
4390;DHT22;2209;48.982;8.406;2023-11-21T13:28:46;10.80;99.90
4390;DHT22;2209;48.982;8.406;2023-11-21T13:31:10;10.70;99.90
4390;DHT22;2209;48.982;8.406;2023-11-21T13:33:41;10.70;99.90
4390;DHT22;2209;48.982;8.406;2023-11-21T13:36:08;10.70;99.90
4390;DHT22;2209;48.982;8.406;2023-11-21T13:38:30;10.70;99.90
4390;DHT22;2209;48.982;8.406;2023-11-21T13:40:54;10.70;99.90
4390;DHT22;2209;48.982;8.406;2023-11-21T13:43:17;10.70;99.90
4390;DHT22;2209;48.982;8.406;2023-11-21T13:45:42;10.70;99.90
4390;DHT22;2209;48.982;8.406;2023-11-21T13:48:06;10.80;99.90
4390;DHT22;2209;48.982;8.406;2023-11-21T13:50:31;10.80;99.90
4390;DHT22;2209;48.982;8.406;2023-11-21T13:52:54;10.80;99.90
4390;DHT22;2209;48.982;8.406;2023-11-21T13:55:16;10.80;99.90
4390;DHT22;2209;48.982;8.406;2023-11-21T13:57:39;10.90;99.90
4390;DHT22;2209;48.982;8.406;2023-11-21T14:00:01;10.90;99.90
4390;DHT22;2209;48.982;8.406;2023-11-21T14:02:23;11.00;99.90
4390;DHT22;2209;48.982;8.406;2023-11-21T14:04:54;10.90;99.90
4390;DHT22;2209;48.982;8.406;2023-11-21T14:07:20;11.00;99.90
4390;DHT22;2209;48.982;8.406;2023-11-21T14:09:51;11.00;99.90
4390;DHT22;2209;48.982;8.406;2023-11-21T14:12:13;11.00;99.90
4390;DHT22;2209;48.982;8.406;2023-11-21T14:14:36;11.00;99.90
4390;DHT22;2209;48.982;8.406;2023-11-21T14:17:00;11.00;99.90
4390;DHT22;2209;48.982;8.406;2023-11-21T14:19:27;11.10;99.90
4390;DHT22;2209;48.982;8.406;2023-11-21T14:21:54;11.00;99.90
4390;DHT22;2209;48.982;8.406;2023-11-21T14:24:16;11.00;99.90
4390;DHT22;2209;48.982;8.406;2023-11-21T14:26:40;10.90;99.90
4390;DHT22;2209;48.982;8.406;2023-11-21T14:29:02;10.90;99.90
4390;DHT22;2209;48.982;8.406;2023-11-21T14:31:25;10.90;99.90
4390;DHT22;2209;48.982;8.406;2023-11-21T14:33:50;10.90;99.90
4390;DHT22;2209;48.982;8.406;2023-11-21T14:36:12;10.90;99.90
4390;DHT22;2209;48.982;8.406;2023-11-21T14:38:36;10.90;99.90
4390;DHT22;2209;48.982;8.406;2023-11-21T14:41:00;10.90;99.90
4390;DHT22;2209;48.982;8.406;2023-11-21T14:43:22;10.90;99.90
4390;DHT22;2209;48.982;8.406;2023-11-21T14:45:44;10.90;99.90
4390;DHT22;2209;48.982;8.406;2023-11-21T14:48:07;11.00;99.90
4390;DHT22;2209;48.982;8.406;2023-11-21T14:50:36;11.00;99.90
4390;DHT22;2209;48.982;8.406;2023-11-21T14:53:12;11.00;99.90
4390;DHT22;2209;48.982;8.406;2023-11-21T14:55:36;11.10;99.90
4390;DHT22;2209;48.982;8.406;2023-11-21T14:58:13;11.10;99.90
4390;DHT22;2209;48.982;8.406;2023-11-21T15:00:40;11.10;99.90
4390;DHT22;2209;48.982;8.406;2023-11-21T15:03:05;11.10;99.90
4390;DHT22;2209;48.982;8.406;2023-11-21T15:05:28;11.10;99.90
4390;DHT22;2209;48.982;8.406;2023-11-21T15:07:49;11.10;99.90
4390;DHT22;2209;48.982;8.406;2023-11-21T15:10:16;11.10;99.90
4390;DHT22;2209;48.982;8.406;2023-11-21T15:12:38;11.10;99.90
4390;DHT22;2209;48.982;8.406;2023-11-21T15:15:01;11.10;99.90
4390;DHT22;2209;48.982;8.406;2023-11-21T15:17:24;11.10;99.90
4390;DHT22;2209;48.982;8.406;2023-11-21T15:19:47;11.10;99.90
4390;DHT22;2209;48.982;8.406;2023-11-21T15:22:09;11.10;99.90
4390;DHT22;2209;48.982;8.406;2023-11-21T15:24:35;11.10;99.90
4390;DHT22;2209;48.982;8.406;2023-11-21T15:26:57;11.10;99.90
4390;DHT22;2209;48.982;8.406;2023-11-21T15:29:21;11.10;99.90
4390;DHT22;2209;48.982;8.406;2023-11-21T15:31:45;11.10;99.90
4390;DHT22;2209;48.982;8.406;2023-11-21T15:34:09;11.10;99.90
4390;DHT22;2209;48.982;8.406;2023-11-21T15:36:31;11.10;99.90
4390;DHT22;2209;48.982;8.406;2023-11-21T15:38:54;11.00;99.90
4390;DHT22;2209;48.982;8.406;2023-11-21T15:41:16;11.00;99.90